Terminal Aerodrome Forecast
Issued by NWS

Home | Current Version | Previous Version | Text Only | Print | Product List | Glossary On
Versions: 1 2 3 4 5 6 7 8 9 10 11 12 13
000
FTUS46 KSTO 301131
TAFRBL
TAF
KRBL 301131Z 3012/0112 34015G20KT P6SM SKC
     FM301500 34015G35KT P6SM SKC
     FM301800 34020G35KT P6SM SKC
     FM010300 34012G20KT P6SM SKC=

USA.gov is the U.S. government's official web portal to all federal, state and local government web resources and services.